»·PEaware :: DAL143 KAMA-KABQ

DAL143 :: KAMA-KABQ

FLIGHT INFORMATION

Flight Status: Arrived
Operator:
Delta Air Lines
More flights by this operator :: More flights under this callsign
Pilot: Brian M. (10491)
Aircraft: CANADAIR CL-600 CRJ-200
(CRJ2)
More flights by this aircraft type
Origin: KAMA Amarillo Intl
United States
Destination: KABQ Albuquerque Intl Sunport
United States
More flights between these airports :: More routes between these airports
Route: PNH V12 ACH V234 ABQ
File this flight plan on PilotEdge
Remarks:
Altitude:
(Current/Filed)
18,000ft
Speed:
(Current/Filed)
300kts
Departed: 10-Sep-17 08:02 AM
Arrived: 10-Sep-17 08:43 AM
Distance/Time
Traveled:
212nm/0:41
Distance/Time
To Go:
Arrived

Flight Plot

Page will automatically refresh every two minutes.

Flight plan parsing failed; only flown route is shown


Map Options




Map Legend


Flown Route
Filed Route
Departure Airport
Arrival Airport
Navaid (VOR, NDB)
Fix

Horizontal Profiles

Position Reports

Time Latitude Longitude Heading Altitude Ground
Speed
10-Sep-17 07:33 35.218830 -101.706704 106 3611ft 0kts
10-Sep-17 07:34 35.218830 -101.706704 106 3611ft 0kts
10-Sep-17 07:35 35.218830 -101.706704 106 3611ft 0kts
10-Sep-17 07:36 35.218830 -101.706704 106 3611ft 0kts
10-Sep-17 07:37 35.218830 -101.706704 106 3611ft 0kts
10-Sep-17 07:38 35.218830 -101.706704 106 3611ft 0kts
10-Sep-17 07:39 35.218830 -101.706704 106 3611ft 0kts
10-Sep-17 07:40 35.218830 -101.706704 106 3611ft 0kts
10-Sep-17 07:41 35.218830 -101.706704 106 3611ft 0kts
10-Sep-17 07:42 35.218830 -101.706704 106 3611ft 0kts
10-Sep-17 07:43 35.218829 -101.706699 106 3611ft 0kts
10-Sep-17 07:44 35.218968 -101.707080 114 3611ft 2kts
10-Sep-17 07:45 35.219211 -101.707740 114 3611ft 2kts
10-Sep-17 07:46 35.219301 -101.708124 44 3611ft 0kts
10-Sep-17 07:47 35.219301 -101.708124 44 3611ft 0kts
10-Sep-17 07:48 35.219301 -101.708124 44 3611ft 0kts
10-Sep-17 07:49 35.219305 -101.708133 45 3611ft 0kts
10-Sep-17 07:50 35.218835 -101.706702 106 3611ft 0kts
10-Sep-17 07:58 35.218828 -101.706715 106 3611ft 0kts
10-Sep-17 07:59 35.218828 -101.706715 106 3611ft 0kts
10-Sep-17 08:00 35.218828 -101.706715 106 3611ft 0kts
10-Sep-17 08:01 35.218855 -101.706613 47 3611ft 5kts
10-Sep-17 08:02 35.221602 -101.706777 48 3611ft 15kts
10-Sep-17 08:03 35.225801 -101.701397 45 3611ft 28kts
10-Sep-17 08:04 35.229770 -101.699391 349 3611ft 10kts
10-Sep-17 08:05 35.230482 -101.699994 313 3611ft 13kts
10-Sep-17 08:06 35.226940 -101.705026 221 3611ft 88kts
10-Sep-17 08:07 35.197363 -101.750092 228 5248ft 209kts
10-Sep-17 08:08 35.165294 -101.804529 259 7671ft 207kts
10-Sep-17 08:09 35.141319 -101.854986 169 8925ft 206kts
10-Sep-17 08:10 35.134502 -101.798415 38 10170ft 229kts
10-Sep-17 08:11 35.189485 -101.789510 304 11383ft 229kts
10-Sep-17 08:12 35.210811 -101.862574 285 12852ft 230kts
10-Sep-17 08:13 35.225715 -101.940018 274 15212ft 237kts
10-Sep-17 08:14 35.228144 -102.020254 266 17806ft 241kts
10-Sep-17 08:15 35.226106 -102.110031 267 18021ft 281kts
10-Sep-17 08:16 35.223678 -102.211988 267 18034ft 328kts
10-Sep-17 08:17 35.220694 -102.332719 267 18031ft 380kts
10-Sep-17 08:18 35.217181 -102.469010 267 18027ft 421kts
10-Sep-17 08:19 35.213240 -102.615085 267 18700ft 435kts
10-Sep-17 08:20 35.209188 -102.759570 266 18010ft 404kts
10-Sep-17 08:21 35.205365 -102.890017 266 17986ft 370kts
10-Sep-17 08:22 35.201646 -103.011907 266 17970ft 348kts
10-Sep-17 08:23 35.198012 -103.127453 267 17971ft 332kts
10-Sep-17 08:24 35.194464 -103.237903 267 17972ft 320kts
10-Sep-17 08:25 35.190923 -103.345786 267 17976ft 319kts
10-Sep-17 08:26 35.187205 -103.455560 267 17980ft 335kts
10-Sep-17 08:27 35.183105 -103.573364 267 17979ft 358kts
10-Sep-17 08:28 35.177926 -103.696993 266 17979ft 375kts
10-Sep-17 08:29 35.172177 -103.826503 266 17978ft 388kts
10-Sep-17 08:30 35.166134 -103.959262 266 17978ft 392kts
10-Sep-17 08:31 35.159992 -104.091462 266 17998ft 391kts
10-Sep-17 08:32 35.153693 -104.223973 266 18011ft 390kts
10-Sep-17 08:33 35.147264 -104.356187 266 18011ft 390kts
10-Sep-17 08:34 35.140689 -104.488457 266 18011ft 390kts
10-Sep-17 08:35 35.133957 -104.620918 266 18011ft 390kts
10-Sep-17 08:36 35.127107 -104.752811 266 18012ft 390kts
10-Sep-17 08:37 35.120103 -104.884976 266 18012ft 391kts
10-Sep-17 08:38 35.113028 -105.016533 265 18037ft 390kts
10-Sep-17 08:39 35.079547 -105.141697 248 18016ft 391kts
10-Sep-17 08:40 35.040519 -105.264759 248 18036ft 392kts
10-Sep-17 08:41 35.001135 -105.388495 248 18055ft 393kts
10-Sep-17 08:42 34.961381 -105.512456 249 18043ft 395kts
10-Sep-17 08:43 34.921302 -105.637430 249 18046ft 398kts
10-Sep-17 08:47 35.047923 -106.616188 181 5314ft 0kts
10-Sep-17 08:48 35.047923 -106.616188 181 5314ft 0kts
10-Sep-17 08:49 34.985605 -106.009470 0 6171ft 0kts
10-Sep-17 08:50 34.985605 -106.009470 0 6171ft 0kts

Navigation Log

Ident Type
Flight plan parsing failed, navigation log unavailable